sensor_id;sensor_type;location;lat;lon;timestamp;P1;durP1;ratioP1;P2;durP2;ratioP2
6735;SDS011;3405;50.576;12.364;2023-02-03T00:01:30;1.38;;;0.80;;
6735;SDS011;3405;50.576;12.364;2023-02-03T00:03:56;1.27;;;0.90;;
6735;SDS011;3405;50.576;12.364;2023-02-03T00:06:22;0.85;;;0.80;;
6735;SDS011;3405;50.576;12.364;2023-02-03T00:08:48;0.90;;;0.90;;
6735;SDS011;3405;50.576;12.364;2023-02-03T00:11:14;0.95;;;0.65;;
6735;SDS011;3405;50.576;12.364;2023-02-03T00:13:40;2.35;;;0.70;;
6735;SDS011;3405;50.576;12.364;2023-02-03T00:16:06;1.17;;;0.70;;
6735;SDS011;3405;50.576;12.364;2023-02-03T00:18:32;2.38;;;0.80;;
6735;SDS011;3405;50.576;12.364;2023-02-03T00:20:58;1.17;;;0.80;;
6735;SDS011;3405;50.576;12.364;2023-02-03T00:23:24;0.98;;;0.80;;
6735;SDS011;3405;50.576;12.364;2023-02-03T00:25:50;1.50;;;0.90;;
6735;SDS011;3405;50.576;12.364;2023-02-03T00:28:16;1.25;;;0.90;;
6735;SDS011;3405;50.576;12.364;2023-02-03T00:30:42;1.17;;;0.70;;
6735;SDS011;3405;50.576;12.364;2023-02-03T00:33:08;0.80;;;0.70;;
6735;SDS011;3405;50.576;12.364;2023-02-03T00:35:37;0.98;;;0.80;;
6735;SDS011;3405;50.576;12.364;2023-02-03T00:38:04;0.90;;;0.77;;
6735;SDS011;3405;50.576;12.364;2023-02-03T00:40:30;0.60;;;0.60;;
6735;SDS011;3405;50.576;12.364;2023-02-03T00:42:56;1.17;;;0.70;;
6735;SDS011;3405;50.576;12.364;2023-02-03T00:45:22;0.70;;;0.70;;
6735;SDS011;3405;50.576;12.364;2023-02-03T00:47:48;2.72;;;0.60;;
6735;SDS011;3405;50.576;12.364;2023-02-03T00:50:14;1.13;;;0.70;;
6735;SDS011;3405;50.576;12.364;2023-02-03T00:52:39;1.90;;;0.90;;
6735;SDS011;3405;50.576;12.364;2023-02-03T00:55:06;0.90;;;0.80;;
6735;SDS011;3405;50.576;12.364;2023-02-03T00:57:32;1.00;;;0.90;;
6735;SDS011;3405;50.576;12.364;2023-02-03T00:59:58;0.65;;;0.65;;
6735;SDS011;3405;50.576;12.364;2023-02-03T01:02:23;1.00;;;0.70;;
6735;SDS011;3405;50.576;12.364;2023-02-03T01:04:49;0.80;;;0.80;;
6735;SDS011;3405;50.576;12.364;2023-02-03T01:07:16;0.70;;;0.70;;
6735;SDS011;3405;50.576;12.364;2023-02-03T01:09:42;0.70;;;0.70;;
6735;SDS011;3405;50.576;12.364;2023-02-03T01:12:07;0.73;;;0.63;;
6735;SDS011;3405;50.576;12.364;2023-02-03T01:14:34;0.75;;;0.68;;
6735;SDS011;3405;50.576;12.364;2023-02-03T01:17:00;0.65;;;0.60;;
6735;SDS011;3405;50.576;12.364;2023-02-03T01:19:25;0.90;;;0.77;;
6735;SDS011;3405;50.576;12.364;2023-02-03T01:21:51;0.73;;;0.70;;
6735;SDS011;3405;50.576;12.364;2023-02-03T01:24:17;0.70;;;0.70;;
6735;SDS011;3405;50.576;12.364;2023-02-03T01:26:43;0.60;;;0.60;;
6735;SDS011;3405;50.576;12.364;2023-02-03T01:29:09;1.17;;;0.60;;
6735;SDS011;3405;50.576;12.364;2023-02-03T01:31:37;0.68;;;0.60;;
6735;SDS011;3405;50.576;12.364;2023-02-03T01:34:04;1.33;;;0.70;;
6735;SDS011;3405;50.576;12.364;2023-02-03T01:36:30;1.95;;;0.63;;
6735;SDS011;3405;50.576;12.364;2023-02-03T01:38:57;0.50;;;0.50;;
6735;SDS011;3405;50.576;12.364;2023-02-03T01:41:24;0.70;;;0.70;;
6735;SDS011;3405;50.576;12.364;2023-02-03T01:43:51;0.52;;;0.52;;
6735;SDS011;3405;50.576;12.364;2023-02-03T01:46:22;0.75;;;0.75;;
6735;SDS011;3405;50.576;12.364;2023-02-03T01:48:49;0.73;;;0.70;;
6735;SDS011;3405;50.576;12.364;2023-02-03T01:51:16;0.60;;;0.55;;
6735;SDS011;3405;50.576;12.364;2023-02-03T01:53:42;0.63;;;0.52;;
6735;SDS011;3405;50.576;12.364;2023-02-03T01:56:08;0.65;;;0.57;;
6735;SDS011;3405;50.576;12.364;2023-02-03T01:58:35;0.60;;;0.60;;
6735;SDS011;3405;50.576;12.364;2023-02-03T02:01:02;0.60;;;0.60;;
6735;SDS011;3405;50.576;12.364;2023-02-03T02:03:33;0.52;;;0.52;;
6735;SDS011;3405;50.576;12.364;2023-02-03T02:06:07;0.75;;;0.70;;
6735;SDS011;3405;50.576;12.364;2023-02-03T02:08:34;0.70;;;0.60;;
6735;SDS011;3405;50.576;12.364;2023-02-03T02:11:00;0.55;;;0.55;;
6735;SDS011;3405;50.576;12.364;2023-02-03T02:13:27;0.93;;;0.65;;
6735;SDS011;3405;50.576;12.364;2023-02-03T02:16:09;2.17;;;0.60;;
6735;SDS011;3405;50.576;12.364;2023-02-03T02:23:58;0.35;;;0.35;;
6735;SDS011;3405;50.576;12.364;2023-02-03T02:31:39;0.60;;;0.60;;
6735;SDS011;3405;50.576;12.364;2023-02-03T02:34:19;0.50;;;0.50;;
6735;SDS011;3405;50.576;12.364;2023-02-03T02:36:52;0.57;;;0.57;;
6735;SDS011;3405;50.576;12.364;2023-02-03T02:39:28;2.67;;;0.55;;
6735;SDS011;3405;50.576;12.364;2023-02-03T02:42:07;0.75;;;0.60;;
6735;SDS011;3405;50.576;12.364;2023-02-03T02:44:40;0.43;;;0.40;;
6735;SDS011;3405;50.576;12.364;2023-02-03T02:47:18;0.50;;;0.50;;
6735;SDS011;3405;50.576;12.364;2023-02-03T02:49:50;0.50;;;0.50;;
6735;SDS011;3405;50.576;12.364;2023-02-03T02:52:19;0.47;;;0.47;;
6735;SDS011;3405;50.576;12.364;2023-02-03T02:54:50;0.40;;;0.40;;
6735;SDS011;3405;50.576;12.364;2023-02-03T02:57:17;0.60;;;0.60;;
6735;SDS011;3405;50.576;12.364;2023-02-03T02:59:45;0.30;;;0.30;;
6735;SDS011;3405;50.576;12.364;2023-02-03T03:02:11;0.65;;;0.65;;
6735;SDS011;3405;50.576;12.364;2023-02-03T03:04:37;0.40;;;0.40;;
6735;SDS011;3405;50.576;12.364;2023-02-03T03:07:07;0.50;;;0.50;;
6735;SDS011;3405;50.576;12.364;2023-02-03T03:09:40;0.50;;;0.50;;
6735;SDS011;3405;50.576;12.364;2023-02-03T03:12:14;0.52;;;0.52;;
6735;SDS011;3405;50.576;12.364;2023-02-03T03:14:42;0.47;;;0.45;;
6735;SDS011;3405;50.576;12.364;2023-02-03T03:17:10;1.08;;;0.60;;
6735;SDS011;3405;50.576;12.364;2023-02-03T03:19:38;0.50;;;0.50;;
6735;SDS011;3405;50.576;12.364;2023-02-03T03:22:08;0.30;;;0.30;;
6735;SDS011;3405;50.576;12.364;2023-02-03T03:24:40;1.58;;;0.50;;
6735;SDS011;3405;50.576;12.364;2023-02-03T03:29:34;0.30;;;0.30;;
6735;SDS011;3405;50.576;12.364;2023-02-03T03:32:01;0.57;;;0.57;;
6735;SDS011;3405;50.576;12.364;2023-02-03T03:34:27;0.40;;;0.40;;
6735;SDS011;3405;50.576;12.364;2023-02-03T03:39:41;0.60;;;0.60;;
6735;SDS011;3405;50.576;12.364;2023-02-03T03:42:26;0.65;;;0.50;;
6735;SDS011;3405;50.576;12.364;2023-02-03T03:44:56;0.50;;;0.50;;
6735;SDS011;3405;50.576;12.364;2023-02-03T03:47:26;0.40;;;0.40;;
6735;SDS011;3405;50.576;12.364;2023-02-03T03:49:54;0.47;;;0.43;;
6735;SDS011;3405;50.576;12.364;2023-02-03T03:52:22;0.45;;;0.45;;
6735;SDS011;3405;50.576;12.364;2023-02-03T03:54:51;0.50;;;0.50;;
6735;SDS011;3405;50.576;12.364;2023-02-03T03:57:20;0.52;;;0.50;;
6735;SDS011;3405;50.576;12.364;2023-02-03T03:59:47;1.00;;;0.52;;
6735;SDS011;3405;50.576;12.364;2023-02-03T04:02:15;0.47;;;0.47;;
6735;SDS011;3405;50.576;12.364;2023-02-03T04:04:41;0.63;;;0.50;;
6735;SDS011;3405;50.576;12.364;2023-02-03T04:07:08;0.70;;;0.60;;
6735;SDS011;3405;50.576;12.364;2023-02-03T04:09:34;0.38;;;0.38;;
6735;SDS011;3405;50.576;12.364;2023-02-03T04:12:01;0.40;;;0.40;;
6735;SDS011;3405;50.576;12.364;2023-02-03T04:14:34;0.50;;;0.50;;
6735;SDS011;3405;50.576;12.364;2023-02-03T04:17:02;0.60;;;0.60;;
6735;SDS011;3405;50.576;12.364;2023-02-03T04:19:28;0.40;;;0.40;;
6735;SDS011;3405;50.576;12.364;2023-02-03T04:21:54;0.40;;;0.40;;
6735;SDS011;3405;50.576;12.364;2023-02-03T04:24:20;0.40;;;0.40;;
6735;SDS011;3405;50.576;12.364;2023-02-03T04:26:46;0.40;;;0.40;;
6735;SDS011;3405;50.576;12.364;2023-02-03T04:29:12;0.30;;;0.30;;
6735;SDS011;3405;50.576;12.364;2023-02-03T04:31:38;0.43;;;0.43;;
6735;SDS011;3405;50.576;12.364;2023-02-03T04:34:04;0.40;;;0.40;;
6735;SDS011;3405;50.576;12.364;2023-02-03T04:36:30;0.30;;;0.30;;
6735;SDS011;3405;50.576;12.364;2023-02-03T04:38:56;0.50;;;0.50;;
6735;SDS011;3405;50.576;12.364;2023-02-03T04:41:22;0.32;;;0.32;;
6735;SDS011;3405;50.576;12.364;2023-02-03T04:43:47;0.47;;;0.32;;
6735;SDS011;3405;50.576;12.364;2023-02-03T04:46:13;0.47;;;0.40;;
6735;SDS011;3405;50.576;12.364;2023-02-03T04:48:39;0.40;;;0.40;;
6735;SDS011;3405;50.576;12.364;2023-02-03T04:51:06;0.30;;;0.30;;
6735;SDS011;3405;50.576;12.364;2023-02-03T04:53:33;0.40;;;0.40;;
6735;SDS011;3405;50.576;12.364;2023-02-03T04:55:59;0.32;;;0.32;;
6735;SDS011;3405;50.576;12.364;2023-02-03T04:58:25;0.40;;;0.35;;
6735;SDS011;3405;50.576;12.364;2023-02-03T05:00:51;0.98;;;0.50;;
6735;SDS011;3405;50.576;12.364;2023-02-03T05:03:17;0.50;;;0.47;;
6735;SDS011;3405;50.576;12.364;2023-02-03T05:05:43;0.65;;;0.40;;
6735;SDS011;3405;50.576;12.364;2023-02-03T05:08:09;0.45;;;0.45;;
6735;SDS011;3405;50.576;12.364;2023-02-03T05:10:35;0.50;;;0.50;;
6735;SDS011;3405;50.576;12.364;2023-02-03T05:13:01;0.40;;;0.40;;
6735;SDS011;3405;50.576;12.364;2023-02-03T05:15:27;0.75;;;0.45;;
6735;SDS011;3405;50.576;12.364;2023-02-03T05:17:53;0.20;;;0.20;;
6735;SDS011;3405;50.576;12.364;2023-02-03T05:20:20;0.40;;;0.40;;
6735;SDS011;3405;50.576;12.364;2023-02-03T05:22:46;0.30;;;0.30;;
6735;SDS011;3405;50.576;12.364;2023-02-03T05:25:12;0.38;;;0.38;;
6735;SDS011;3405;50.576;12.364;2023-02-03T05:27:38;0.60;;;0.60;;
6735;SDS011;3405;50.576;12.364;2023-02-03T05:30:04;0.40;;;0.40;;
6735;SDS011;3405;50.576;12.364;2023-02-03T05:32:31;0.20;;;0.20;;
6735;SDS011;3405;50.576;12.364;2023-02-03T05:34:56;0.82;;;0.60;;
6735;SDS011;3405;50.576;12.364;2023-02-03T05:37:22;0.40;;;0.40;;
6735;SDS011;3405;50.576;12.364;2023-02-03T05:39:48;0.30;;;0.30;;
6735;SDS011;3405;50.576;12.364;2023-02-03T05:42:14;0.30;;;0.30;;
6735;SDS011;3405;50.576;12.364;2023-02-03T05:44:40;0.40;;;0.40;;
6735;SDS011;3405;50.576;12.364;2023-02-03T05:47:06;0.32;;;0.32;;
6735;SDS011;3405;50.576;12.364;2023-02-03T05:49:32;0.40;;;0.40;;
6735;SDS011;3405;50.576;12.364;2023-02-03T05:51:58;0.43;;;0.40;;
6735;SDS011;3405;50.576;12.364;2023-02-03T05:54:24;0.47;;;0.47;;
6735;SDS011;3405;50.576;12.364;2023-02-03T05:56:50;1.02;;;0.40;;
6735;SDS011;3405;50.576;12.364;2023-02-03T05:59:16;0.40;;;0.40;;
6735;SDS011;3405;50.576;12.364;2023-02-03T06:01:42;0.40;;;0.40;;
6735;SDS011;3405;50.576;12.364;2023-02-03T06:04:08;0.40;;;0.40;;
6735;SDS011;3405;50.576;12.364;2023-02-03T06:06:34;0.30;;;0.30;;
6735;SDS011;3405;50.576;12.364;2023-02-03T06:09:00;0.47;;;0.35;;
6735;SDS011;3405;50.576;12.364;2023-02-03T06:11:27;0.38;;;0.38;;
6735;SDS011;3405;50.576;12.364;2023-02-03T06:13:54;0.45;;;0.40;;
6735;SDS011;3405;50.576;12.364;2023-02-03T06:16:20;0.40;;;0.40;;
6735;SDS011;3405;50.576;12.364;2023-02-03T06:18:49;0.75;;;0.40;;
6735;SDS011;3405;50.576;12.364;2023-02-03T06:21:15;0.30;;;0.30;;
6735;SDS011;3405;50.576;12.364;2023-02-03T06:23:40;0.40;;;0.40;;
6735;SDS011;3405;50.576;12.364;2023-02-03T06:26:06;0.47;;;0.40;;
6735;SDS011;3405;50.576;12.364;2023-02-03T06:28:32;0.40;;;0.40;;
6735;SDS011;3405;50.576;12.364;2023-02-03T06:30:58;0.38;;;0.38;;
6735;SDS011;3405;50.576;12.364;2023-02-03T06:33:25;0.30;;;0.30;;
6735;SDS011;3405;50.576;12.364;2023-02-03T06:35:52;0.20;;;0.20;;
6735;SDS011;3405;50.576;12.364;2023-02-03T06:38:18;0.95;;;0.30;;
6735;SDS011;3405;50.576;12.364;2023-02-03T06:40:47;0.40;;;0.40;;
6735;SDS011;3405;50.576;12.364;2023-02-03T06:43:14;0.20;;;0.20;;
6735;SDS011;3405;50.576;12.364;2023-02-03T06:45:40;0.38;;;0.38;;
6735;SDS011;3405;50.576;12.364;2023-02-03T06:48:06;0.40;;;0.35;;
6735;SDS011;3405;50.576;12.364;2023-02-03T06:50:32;0.20;;;0.20;;
6735;SDS011;3405;50.576;12.364;2023-02-03T06:52:58;0.52;;;0.38;;
6735;SDS011;3405;50.576;12.364;2023-02-03T06:55:24;0.20;;;0.20;;
6735;SDS011;3405;50.576;12.364;2023-02-03T06:57:50;0.28;;;0.28;;
6735;SDS011;3405;50.576;12.364;2023-02-03T07:00:16;0.30;;;0.30;;
6735;SDS011;3405;50.576;12.364;2023-02-03T07:02:42;0.30;;;0.28;;
6735;SDS011;3405;50.576;12.364;2023-02-03T07:05:09;0.40;;;0.40;;
6735;SDS011;3405;50.576;12.364;2023-02-03T07:07:35;0.20;;;0.20;;
6735;SDS011;3405;50.576;12.364;2023-02-03T07:10:03;0.40;;;0.40;;
6735;SDS011;3405;50.576;12.364;2023-02-03T07:12:29;0.40;;;0.40;;
6735;SDS011;3405;50.576;12.364;2023-02-03T07:14:55;0.30;;;0.30;;
6735;SDS011;3405;50.576;12.364;2023-02-03T07:17:21;0.40;;;0.30;;
6735;SDS011;3405;50.576;12.364;2023-02-03T07:19:47;0.30;;;0.30;;
6735;SDS011;3405;50.576;12.364;2023-02-03T07:22:13;0.28;;;0.28;;
6735;SDS011;3405;50.576;12.364;2023-02-03T07:24:39;0.40;;;0.40;;
6735;SDS011;3405;50.576;12.364;2023-02-03T07:27:05;0.28;;;0.28;;
6735;SDS011;3405;50.576;12.364;2023-02-03T07:29:31;0.35;;;0.35;;
6735;SDS011;3405;50.576;12.364;2023-02-03T07:31:57;0.40;;;0.40;;
6735;SDS011;3405;50.576;12.364;2023-02-03T07:34:23;0.30;;;0.30;;
6735;SDS011;3405;50.576;12.364;2023-02-03T07:36:49;0.30;;;0.30;;
6735;SDS011;3405;50.576;12.364;2023-02-03T07:39:14;0.30;;;0.30;;
6735;SDS011;3405;50.576;12.364;2023-02-03T07:41:40;0.43;;;0.30;;
6735;SDS011;3405;50.576;12.364;2023-02-03T07:44:06;0.30;;;0.30;;
6735;SDS011;3405;50.576;12.364;2023-02-03T07:46:33;0.32;;;0.32;;
6735;SDS011;3405;50.576;12.364;2023-02-03T07:48:59;0.40;;;0.40;;
6735;SDS011;3405;50.576;12.364;2023-02-03T07:51:28;0.50;;;0.40;;
6735;SDS011;3405;50.576;12.364;2023-02-03T07:53:55;0.47;;;0.47;;
6735;SDS011;3405;50.576;12.364;2023-02-03T07:56:21;0.30;;;0.30;;
6735;SDS011;3405;50.576;12.364;2023-02-03T07:58:47;0.40;;;0.40;;
6735;SDS011;3405;50.576;12.364;2023-02-03T08:01:13;0.30;;;0.30;;
6735;SDS011;3405;50.576;12.364;2023-02-03T08:03:40;0.30;;;0.30;;
6735;SDS011;3405;50.576;12.364;2023-02-03T08:06:06;0.40;;;0.40;;
6735;SDS011;3405;50.576;12.364;2023-02-03T08:08:33;0.40;;;0.40;;
6735;SDS011;3405;50.576;12.364;2023-02-03T08:10:58;0.52;;;0.40;;
6735;SDS011;3405;50.576;12.364;2023-02-03T08:13:24;0.50;;;0.50;;
6735;SDS011;3405;50.576;12.364;2023-02-03T08:15:50;0.30;;;0.30;;
6735;SDS011;3405;50.576;12.364;2023-02-03T08:18:17;0.52;;;0.40;;
6735;SDS011;3405;50.576;12.364;2023-02-03T08:20:43;0.32;;;0.32;;
6735;SDS011;3405;50.576;12.364;2023-02-03T08:23:09;0.30;;;0.30;;
6735;SDS011;3405;50.576;12.364;2023-02-03T08:25:34;0.40;;;0.40;;
6735;SDS011;3405;50.576;12.364;2023-02-03T08:28:00;0.30;;;0.30;;
6735;SDS011;3405;50.576;12.364;2023-02-03T08:30:26;0.50;;;0.50;;
6735;SDS011;3405;50.576;12.364;2023-02-03T08:32:52;0.30;;;0.30;;
6735;SDS011;3405;50.576;12.364;2023-02-03T08:35:18;0.40;;;0.35;;
6735;SDS011;3405;50.576;12.364;2023-02-03T08:37:44;0.40;;;0.40;;
6735;SDS011;3405;50.576;12.364;2023-02-03T08:40:10;0.50;;;0.50;;
6735;SDS011;3405;50.576;12.364;2023-02-03T08:42:36;0.30;;;0.30;;
6735;SDS011;3405;50.576;12.364;2023-02-03T08:45:02;0.32;;;0.30;;
6735;SDS011;3405;50.576;12.364;2023-02-03T08:47:28;0.20;;;0.20;;
6735;SDS011;3405;50.576;12.364;2023-02-03T08:49:54;0.98;;;0.45;;
6735;SDS011;3405;50.576;12.364;2023-02-03T08:52:20;0.20;;;0.20;;
6735;SDS011;3405;50.576;12.364;2023-02-03T08:54:46;0.30;;;0.30;;
6735;SDS011;3405;50.576;12.364;2023-02-03T08:57:13;0.40;;;0.40;;
6735;SDS011;3405;50.576;12.364;2023-02-03T08:59:39;0.40;;;0.20;;
6735;SDS011;3405;50.576;12.364;2023-02-03T09:02:08;0.40;;;0.40;;
6735;SDS011;3405;50.576;12.364;2023-02-03T09:04:35;0.40;;;0.40;;
6735;SDS011;3405;50.576;12.364;2023-02-03T09:07:01;0.40;;;0.30;;
6735;SDS011;3405;50.576;12.364;2023-02-03T09:09:28;0.20;;;0.20;;
6735;SDS011;3405;50.576;12.364;2023-02-03T09:11:54;0.30;;;0.30;;
6735;SDS011;3405;50.576;12.364;2023-02-03T09:14:25;0.55;;;0.40;;
6735;SDS011;3405;50.576;12.364;2023-02-03T09:16:51;0.35;;;0.35;;
6735;SDS011;3405;50.576;12.364;2023-02-03T09:19:17;0.45;;;0.30;;
6735;SDS011;3405;50.576;12.364;2023-02-03T09:21:43;0.52;;;0.45;;
6735;SDS011;3405;50.576;12.364;2023-02-03T09:24:09;1.35;;;0.40;;
6735;SDS011;3405;50.576;12.364;2023-02-03T09:26:35;0.30;;;0.30;;
6735;SDS011;3405;50.576;12.364;2023-02-03T09:29:01;0.40;;;0.40;;
6735;SDS011;3405;50.576;12.364;2023-02-03T09:31:27;0.35;;;0.32;;
6735;SDS011;3405;50.576;12.364;2023-02-03T09:33:52;0.65;;;0.40;;
6735;SDS011;3405;50.576;12.364;2023-02-03T09:36:18;1.20;;;0.30;;
6735;SDS011;3405;50.576;12.364;2023-02-03T09:38:44;2.10;;;0.40;;
6735;SDS011;3405;50.576;12.364;2023-02-03T09:44:29;1.23;;;0.50;;
6735;SDS011;3405;50.576;12.364;2023-02-03T09:46:47;1.05;;;0.50;;
6735;SDS011;3405;50.576;12.364;2023-02-03T09:49:17;2.33;;;0.80;;
6735;SDS011;3405;50.576;12.364;2023-02-03T09:51:51;0.60;;;0.45;;
6735;SDS011;3405;50.576;12.364;2023-02-03T09:54:20;1.35;;;0.60;;
6735;SDS011;3405;50.576;12.364;2023-02-03T09:56:48;3.03;;;0.70;;
6735;SDS011;3405;50.576;12.364;2023-02-03T09:59:16;1.25;;;0.55;;
6735;SDS011;3405;50.576;12.364;2023-02-03T10:01:46;1.05;;;0.50;;
6735;SDS011;3405;50.576;12.364;2023-02-03T10:04:25;2.35;;;0.60;;
6735;SDS011;3405;50.576;12.364;2023-02-03T10:06:56;0.57;;;0.52;;
6735;SDS011;3405;50.576;12.364;2023-02-03T10:09:34;0.75;;;0.50;;
6735;SDS011;3405;50.576;12.364;2023-02-03T10:19:49;3.50;;;0.55;;
6735;SDS011;3405;50.576;12.364;2023-02-03T10:22:17;1.00;;;0.43;;
6735;SDS011;3405;50.576;12.364;2023-02-03T10:24:46;0.63;;;0.40;;
6735;SDS011;3405;50.576;12.364;2023-02-03T10:27:16;0.63;;;0.43;;
6735;SDS011;3405;50.576;12.364;2023-02-03T10:29:43;2.67;;;0.68;;
6735;SDS011;3405;50.576;12.364;2023-02-03T10:32:10;1.23;;;0.57;;
6735;SDS011;3405;50.576;12.364;2023-02-03T10:34:36;1.88;;;0.50;;
6735;SDS011;3405;50.576;12.364;2023-02-03T10:37:08;2.55;;;0.57;;
6735;SDS011;3405;50.576;12.364;2023-02-03T10:42:06;0.50;;;0.40;;
6735;SDS011;3405;50.576;12.364;2023-02-03T10:44:38;1.05;;;0.50;;
6735;SDS011;3405;50.576;12.364;2023-02-03T10:47:18;1.90;;;0.50;;
6735;SDS011;3405;50.576;12.364;2023-02-03T10:49:45;1.10;;;0.52;;
6735;SDS011;3405;50.576;12.364;2023-02-03T10:52:23;1.85;;;0.50;;
6735;SDS011;3405;50.576;12.364;2023-02-03T10:54:49;1.15;;;0.60;;
6735;SDS011;3405;50.576;12.364;2023-02-03T10:57:15;1.67;;;0.60;;
6735;SDS011;3405;50.576;12.364;2023-02-03T10:59:42;2.15;;;0.60;;
6735;SDS011;3405;50.576;12.364;2023-02-03T11:02:18;0.70;;;0.52;;
6735;SDS011;3405;50.576;12.364;2023-02-03T11:04:46;0.50;;;0.50;;
6735;SDS011;3405;50.576;12.364;2023-02-03T11:07:25;1.52;;;0.60;;
6735;SDS011;3405;50.576;12.364;2023-02-03T11:09:51;0.80;;;0.60;;
6735;SDS011;3405;50.576;12.364;2023-02-03T11:12:18;0.52;;;0.50;;
6735;SDS011;3405;50.576;12.364;2023-02-03T11:14:45;0.38;;;0.35;;
6735;SDS011;3405;50.576;12.364;2023-02-03T11:19:42;0.50;;;0.40;;
6735;SDS011;3405;50.576;12.364;2023-02-03T11:22:08;0.40;;;0.40;;
6735;SDS011;3405;50.576;12.364;2023-02-03T11:24:38;4.70;;;0.60;;
6735;SDS011;3405;50.576;12.364;2023-02-03T11:27:06;0.40;;;0.40;;
6735;SDS011;3405;50.576;12.364;2023-02-03T11:29:35;1.02;;;0.50;;
6735;SDS011;3405;50.576;12.364;2023-02-03T11:34:55;1.17;;;0.28;;
6735;SDS011;3405;50.576;12.364;2023-02-03T11:37:35;1.13;;;0.40;;
6735;SDS011;3405;50.576;12.364;2023-02-03T11:42:38;1.05;;;0.63;;
6735;SDS011;3405;50.576;12.364;2023-02-03T11:45:13;2.60;;;1.15;;
6735;SDS011;3405;50.576;12.364;2023-02-03T11:47:44;2.70;;;0.60;;
6735;SDS011;3405;50.576;12.364;2023-02-03T11:52:52;1.88;;;0.60;;
6735;SDS011;3405;50.576;12.364;2023-02-03T11:55:42;1.70;;;0.80;;
6735;SDS011;3405;50.576;12.364;2023-02-03T11:58:32;2.92;;;0.52;;
6735;SDS011;3405;50.576;12.364;2023-02-03T12:01:06;2.65;;;0.70;;
6735;SDS011;3405;50.576;12.364;2023-02-03T12:03:38;1.73;;;0.70;;
6735;SDS011;3405;50.576;12.364;2023-02-03T12:08:38;2.67;;;0.63;;
6735;SDS011;3405;50.576;12.364;2023-02-03T12:21:45;5.97;;;1.80;;
6735;SDS011;3405;50.576;12.364;2023-02-03T12:24:18;10.18;;;1.85;;
6735;SDS011;3405;50.576;12.364;2023-02-03T12:27:08;4.75;;;1.42;;
6735;SDS011;3405;50.576;12.364;2023-02-03T12:29:38;4.03;;;1.48;;
6735;SDS011;3405;50.576;12.364;2023-02-03T12:37:31;5.20;;;1.27;;
6735;SDS011;3405;50.576;12.364;2023-02-03T12:40:00;3.65;;;1.23;;
6735;SDS011;3405;50.576;12.364;2023-02-03T12:42:28;10.10;;;1.38;;
6735;SDS011;3405;50.576;12.364;2023-02-03T12:47:35;7.43;;;1.48;;
6735;SDS011;3405;50.576;12.364;2023-02-03T12:55:14;5.65;;;1.38;;
6735;SDS011;3405;50.576;12.364;2023-02-03T12:57:43;4.03;;;1.60;;
6735;SDS011;3405;50.576;12.364;2023-02-03T13:00:18;5.82;;;1.48;;
6735;SDS011;3405;50.576;12.364;2023-02-03T13:03:06;9.52;;;1.60;;
6735;SDS011;3405;50.576;12.364;2023-02-03T13:05:40;7.57;;;1.40;;
6735;SDS011;3405;50.576;12.364;2023-02-03T13:08:20;8.63;;;1.52;;
6735;SDS011;3405;50.576;12.364;2023-02-03T13:10:52;5.45;;;1.60;;
6735;SDS011;3405;50.576;12.364;2023-02-03T13:13:22;6.00;;;1.92;;
6735;SDS011;3405;50.576;12.364;2023-02-03T13:15:50;3.88;;;1.23;;
6735;SDS011;3405;50.576;12.364;2023-02-03T13:20:45;8.60;;;1.52;;
6735;SDS011;3405;50.576;12.364;2023-02-03T13:23:12;12.05;;;1.73;;
6735;SDS011;3405;50.576;12.364;2023-02-03T13:25:42;3.90;;;1.50;;
6735;SDS011;3405;50.576;12.364;2023-02-03T13:28:18;6.57;;;1.40;;
6735;SDS011;3405;50.576;12.364;2023-02-03T13:41:51;4.45;;;1.30;;
6735;SDS011;3405;50.576;12.364;2023-02-03T13:44:19;3.95;;;1.48;;
6735;SDS011;3405;50.576;12.364;2023-02-03T13:46:46;9.13;;;2.80;;
6735;SDS011;3405;50.576;12.364;2023-02-03T13:49:47;5.20;;;2.20;;
6735;SDS011;3405;50.576;12.364;2023-02-03T13:52:22;8.77;;;2.00;;
6735;SDS011;3405;50.576;12.364;2023-02-03T13:54:48;4.88;;;1.63;;
6735;SDS011;3405;50.576;12.364;2023-02-03T13:57:19;9.60;;;1.70;;
6735;SDS011;3405;50.576;12.364;2023-02-03T13:59:46;4.28;;;1.80;;
6735;SDS011;3405;50.576;12.364;2023-02-03T14:07:25;3.65;;;1.40;;
6735;SDS011;3405;50.576;12.364;2023-02-03T14:10:04;4.28;;;1.42;;
6735;SDS011;3405;50.576;12.364;2023-02-03T14:12:34;5.25;;;1.25;;
6735;SDS011;3405;50.576;12.364;2023-02-03T14:15:01;6.00;;;1.40;;
6735;SDS011;3405;50.576;12.364;2023-02-03T14:25:39;3.35;;;1.20;;
6735;SDS011;3405;50.576;12.364;2023-02-03T14:28:07;3.42;;;1.40;;
6735;SDS011;3405;50.576;12.364;2023-02-03T14:33:19;2.58;;;1.30;;
6735;SDS011;3405;50.576;12.364;2023-02-03T14:35:49;5.57;;;1.30;;
6735;SDS011;3405;50.576;12.364;2023-02-03T14:38:15;2.25;;;1.33;;
6735;SDS011;3405;50.576;12.364;2023-02-03T14:40:58;4.70;;;1.20;;
6735;SDS011;3405;50.576;12.364;2023-02-03T14:43:33;3.92;;;1.20;;
6735;SDS011;3405;50.576;12.364;2023-02-03T14:53:46;1.90;;;1.10;;
6735;SDS011;3405;50.576;12.364;2023-02-03T14:59:20;1.73;;;1.10;;
6735;SDS011;3405;50.576;12.364;2023-02-03T15:06:44;1.27;;;0.82;;
6735;SDS011;3405;50.576;12.364;2023-02-03T15:12:20;2.17;;;1.10;;
6735;SDS011;3405;50.576;12.364;2023-02-03T15:14:47;3.00;;;0.85;;
6735;SDS011;3405;50.576;12.364;2023-02-03T15:17:24;2.47;;;0.90;;
6735;SDS011;3405;50.576;12.364;2023-02-03T15:19:50;1.52;;;0.90;;
6735;SDS011;3405;50.576;12.364;2023-02-03T15:22:36;3.05;;;0.93;;
6735;SDS011;3405;50.576;12.364;2023-02-03T15:25:04;1.63;;;0.80;;
6735;SDS011;3405;50.576;12.364;2023-02-03T15:27:38;1.77;;;0.80;;
6735;SDS011;3405;50.576;12.364;2023-02-03T15:30:14;2.38;;;1.20;;
6735;SDS011;3405;50.576;12.364;2023-02-03T15:32:42;1.42;;;0.85;;
6735;SDS011;3405;50.576;12.364;2023-02-03T15:35:11;1.30;;;0.82;;
6735;SDS011;3405;50.576;12.364;2023-02-03T15:37:41;2.30;;;0.80;;
6735;SDS011;3405;50.576;12.364;2023-02-03T15:42:56;1.73;;;0.85;;
6735;SDS011;3405;50.576;12.364;2023-02-03T15:45:25;1.98;;;0.98;;
6735;SDS011;3405;50.576;12.364;2023-02-03T15:47:55;2.70;;;1.05;;
6735;SDS011;3405;50.576;12.364;2023-02-03T15:50:29;2.10;;;0.88;;
6735;SDS011;3405;50.576;12.364;2023-02-03T15:52:59;1.00;;;0.70;;
6735;SDS011;3405;50.576;12.364;2023-02-03T15:55:32;1.45;;;0.98;;
6735;SDS011;3405;50.576;12.364;2023-02-03T15:58:01;1.77;;;1.00;;
6735;SDS011;3405;50.576;12.364;2023-02-03T16:00:29;1.85;;;0.70;;
6735;SDS011;3405;50.576;12.364;2023-02-03T16:02:57;2.40;;;0.88;;
6735;SDS011;3405;50.576;12.364;2023-02-03T16:05:33;2.20;;;0.98;;
6735;SDS011;3405;50.576;12.364;2023-02-03T16:10:45;1.27;;;0.90;;
6735;SDS011;3405;50.576;12.364;2023-02-03T16:13:16;1.73;;;0.80;;
6735;SDS011;3405;50.576;12.364;2023-02-03T16:15:44;1.42;;;0.80;;
6735;SDS011;3405;50.576;12.364;2023-02-03T16:18:20;1.65;;;0.88;;
6735;SDS011;3405;50.576;12.364;2023-02-03T16:20:48;1.75;;;0.80;;
6735;SDS011;3405;50.576;12.364;2023-02-03T16:23:19;1.30;;;0.93;;
6735;SDS011;3405;50.576;12.364;2023-02-03T16:26:01;2.38;;;1.00;;
6735;SDS011;3405;50.576;12.364;2023-02-03T16:28:27;1.27;;;0.80;;
6735;SDS011;3405;50.576;12.364;2023-02-03T16:31:13;2.70;;;1.02;;
6735;SDS011;3405;50.576;12.364;2023-02-03T16:34:00;2.72;;;0.85;;
6735;SDS011;3405;50.576;12.364;2023-02-03T16:36:44;2.33;;;1.00;;
6735;SDS011;3405;50.576;12.364;2023-02-03T16:39:29;2.30;;;0.98;;
6735;SDS011;3405;50.576;12.364;2023-02-03T16:42:14;1.15;;;0.70;;
6735;SDS011;3405;50.576;12.364;2023-02-03T16:44:59;1.23;;;0.85;;
6735;SDS011;3405;50.576;12.364;2023-02-03T16:47:44;0.95;;;0.60;;
6735;SDS011;3405;50.576;12.364;2023-02-03T16:50:29;2.15;;;1.13;;
6735;SDS011;3405;50.576;12.364;2023-02-03T16:53:15;1.33;;;0.80;;
6735;SDS011;3405;50.576;12.364;2023-02-03T16:55:41;1.67;;;1.02;;
6735;SDS011;3405;50.576;12.364;2023-02-03T16:58:08;1.58;;;0.70;;
6735;SDS011;3405;50.576;12.364;2023-02-03T17:00:35;1.25;;;0.90;;
6735;SDS011;3405;50.576;12.364;2023-02-03T17:03:05;1.00;;;0.70;;
6735;SDS011;3405;50.576;12.364;2023-02-03T17:05:34;1.10;;;0.90;;
6735;SDS011;3405;50.576;12.364;2023-02-03T17:08:00;2.25;;;1.20;;
6735;SDS011;3405;50.576;12.364;2023-02-03T17:10:26;1.05;;;0.70;;